Alhambra, CA (91802)

10:19 AM PDT on May 05, 2015 (GMT -0700)
Alhambra, CA | | Change Station
CLOSE
Current Station
Personal Weather Station
Location: Alhambra, CA
Elevation: 369 ft
Nearby Weather Stations

Elev 369 ft 34.07 °N, 118.11 °W | Updated 10 minutes ago

Overcast
Overcast
64.4 °F
Feels Like 64.4 °F
N
0.0
Wind Variable Wind from North

Today
High -- | Low -- °F
--% Chance of Precip.
Yesterday
High -- | Low -- °F
Precip. -- in
5:59 AM 7:39 PM
Full, 97% visible
Pressure 29.99 in
Visibility 10.0 miles
Clouds Overcast 3500 ft
Dew Point 52 °F
Humidity 64%
Rainfall -999.00 in
Snow Depth Not available.
UV 2 out of 12
Pollen 5.60 out of 12
Air Quality Not available.
Flu Activity Sporadic
METAR KCQT 051647Z AUTO 10003KT 10SM OVC035 17/09 A2999 RMK AO2 SLP155 T01670089

More Conditions Fewer Conditions

Pressure 29.99 in
Visibility 10.0 miles
Clouds Overcast 3500 ft
Dew Point 52 °F
Humidity 64%
Rainfall -999.00 in
Snow Depth Not available.
UV 2 out of 12
Pollen 5.60 out of 12
Air Quality Not available.
Flu Activity Sporadic
METAR KCQT 051647Z AUTO 10003KT 10SM OVC035 17/09 A2999 RMK AO2 SLP155 T01670089

More Conditions Fewer Conditions

10-Day Weather Forecast

Almanac

Astronomy

May. 05, 2015 Rise Set
Actual Time
Civil Twilight
Nautical Twilight
Astronomical Twilight
Moon
Length of Visible Light
Length of Day
Tomorrow will be .
, % of the Moon is Illuminated

Today's Extremes

State Highs State Lows

Community

WunderPhotos

Upload Photos

1,818,944 photos uploaded!

WunderBlogs® & News

Nearby

Air Quality

  Air Quality AQ Index Pollutant
Not available.

Snow Depth

Station Depth Elevation

Earthquake Activity

City Distance Mag. Time & Date
Minimum magnitude displayed is 2.5.

Coastal Water Temperatures

Place Temperature

Stations

Nearby Weather Stations

Station Location Temp. Windchill Dew Point Humidity Wind Precip. Elev Updated Type